createdAt,value
2022-12-18T00:02:48.679Z,36
2022-12-18T00:08:32.058Z,33.7
2022-12-18T00:14:15.689Z,33.1
2022-12-18T00:19:58.601Z,29.9
2022-12-18T00:25:41.500Z,28.3
2022-12-18T00:31:27.143Z,29.1
2022-12-18T00:37:10.377Z,28.9
2022-12-18T00:42:53.225Z,29
2022-12-18T00:48:36.455Z,26
2022-12-18T00:54:20.011Z,25.8
2022-12-18T01:00:03.009Z,27.2
2022-12-18T01:05:46.309Z,24.1
2022-12-18T01:11:29.174Z,24.6
2022-12-18T01:17:11.893Z,23.8
2022-12-18T01:22:58.353Z,22.5
2022-12-18T01:28:42.855Z,21.7
2022-12-18T01:34:25.938Z,21.8
2022-12-18T01:40:10.756Z,22
2022-12-18T01:45:53.885Z,19.7
2022-12-18T01:51:36.841Z,20.8
2022-12-18T01:57:20.051Z,20.8
2022-12-18T02:03:03.221Z,20
2022-12-18T02:08:50.398Z,16.8
2022-12-18T02:14:38.506Z,17.1
2022-12-18T02:20:25.612Z,15.7
2022-12-18T02:26:15.455Z,16.7
2022-12-18T02:32:00.187Z,17.2
2022-12-18T02:37:45.379Z,15.5
2022-12-18T02:43:27.932Z,13.8
2022-12-18T02:49:21.278Z,15.6
2022-12-18T02:55:09.784Z,14.7
2022-12-18T03:00:57.062Z,15.3
2022-12-18T03:06:43.797Z,13.7
2022-12-18T03:12:31.944Z,15.2
2022-12-18T03:18:16.857Z,14
2022-12-18T03:24:00.244Z,13.2
2022-12-18T03:29:45.932Z,14.6
2022-12-18T03:35:32.146Z,11.9
2022-12-18T03:41:18.153Z,12.3
2022-12-18T03:47:06.320Z,13.5
2022-12-18T03:52:53.115Z,11.4
2022-12-18T03:58:38.596Z,13.7
2022-12-18T04:04:22.342Z,13.4
2022-12-18T04:10:06.954Z,9.5
2022-12-18T04:15:50.022Z,11.9
2022-12-18T04:21:33.198Z,10
2022-12-18T04:27:16.088Z,10.1
2022-12-18T04:32:59.002Z,9.6
2022-12-18T04:38:41.796Z,9.5
2022-12-18T04:44:25.044Z,12.8
2022-12-18T04:50:08.661Z,11.1
2022-12-18T04:55:51.459Z,13.3
2022-12-18T05:01:38.038Z,9.1
2022-12-18T05:07:20.909Z,12.2
2022-12-18T05:13:04.116Z,11.6
2022-12-18T05:18:47.305Z,9
2022-12-18T05:24:30.321Z,10.1
2022-12-18T05:30:15.375Z,9.7
2022-12-18T05:35:59.118Z,9.1
2022-12-18T05:41:43.909Z,9.4
2022-12-18T05:47:27.180Z,8.4
2022-12-18T05:53:10.276Z,8.9
2022-12-18T05:58:54.975Z,8.5
2022-12-18T06:04:37.697Z,8.7
2022-12-18T06:10:20.515Z,8
2022-12-18T06:16:05.079Z,9.6
2022-12-18T06:21:47.794Z,10.2
2022-12-18T06:27:30.721Z,8.7
2022-12-18T06:33:13.585Z,8
2022-12-18T06:38:56.377Z,9.5
2022-12-18T06:44:39.123Z,8.4
2022-12-18T06:50:21.969Z,8.1
2022-12-18T06:56:13.098Z,9.4
2022-12-18T07:01:56.755Z,8.4
2022-12-18T07:07:40.485Z,9.5
2022-12-18T07:13:23.288Z,7.9
2022-12-18T07:19:06.352Z,8.2
2022-12-18T07:24:49.096Z,8.4
2022-12-18T07:30:31.857Z,9.8
2022-12-18T07:36:15.392Z,8.4
2022-12-18T07:41:58.233Z,9.2
2022-12-18T07:47:41.582Z,8.3
2022-12-18T07:53:24.308Z,9.5
2022-12-18T07:59:07.252Z,8.3
2022-12-18T08:04:50.068Z,9.5
2022-12-18T08:10:32.862Z,9.2
2022-12-18T08:16:15.922Z,10.2
2022-12-18T08:21:59.841Z,7.7
2022-12-18T08:27:43.007Z,10.5
2022-12-18T08:33:25.794Z,10.4
2022-12-18T08:39:08.773Z,10
2022-12-18T08:44:52.021Z,10.6
2022-12-18T08:50:34.773Z,8.4
2022-12-18T08:56:18.149Z,9.3
2022-12-18T09:02:01.629Z,10
2022-12-18T09:07:44.705Z,10
2022-12-18T09:13:28.088Z,11.3
2022-12-18T09:19:10.879Z,10.7
2022-12-18T09:24:53.889Z,11
2022-12-18T09:30:38.887Z,11
2022-12-18T09:36:24.490Z,11.9
2022-12-18T09:42:08.510Z,11.9
2022-12-18T09:47:52.747Z,11.2
2022-12-18T09:53:37.967Z,10.7
2022-12-18T09:59:25.234Z,11.7
2022-12-18T10:05:15.554Z,12.4
2022-12-18T10:11:01.165Z,10.8
2022-12-18T10:16:52.339Z,12.7
2022-12-18T10:22:42.963Z,13.1
2022-12-18T10:28:27.679Z,12.5
2022-12-18T10:34:12.402Z,15.4
2022-12-18T10:40:00.845Z,14.3
2022-12-18T10:45:43.766Z,14.6
2022-12-18T10:51:32.255Z,14
2022-12-18T10:57:26.657Z,13.6
2022-12-18T11:03:15.863Z,15.1
2022-12-18T11:09:15.669Z,15.3
2022-12-18T11:14:59.025Z,14.3
2022-12-18T11:20:42.448Z,14.4
2022-12-18T11:26:30.193Z,20.7
2022-12-18T11:32:31.330Z,15.8
2022-12-18T11:38:15.536Z,17.1
2022-12-18T11:44:00.032Z,20
2022-12-18T11:49:44.382Z,16.2
2022-12-18T11:55:32.035Z,17.5
2022-12-18T12:01:19.758Z,15.7
2022-12-18T12:07:07.872Z,35.2
2022-12-18T12:12:57.308Z,36.5
2022-12-18T12:18:45.874Z,32.7
2022-12-18T12:24:35.013Z,30.8
2022-12-18T12:30:23.964Z,30
2022-12-18T12:36:09.024Z,31.3
2022-12-18T12:41:52.284Z,28.3
2022-12-18T12:47:38.346Z,26.4
2022-12-18T12:53:26.146Z,28.8
2022-12-18T12:59:15.056Z,24.8
2022-12-18T13:05:02.678Z,26
2022-12-18T13:10:46.545Z,25.9
2022-12-18T13:16:30.547Z,25.1
2022-12-18T13:22:19.583Z,23.3
2022-12-18T13:28:11.441Z,24.1
2022-12-18T13:34:25.471Z,22
2022-12-18T13:39:57.028Z,24.8
2022-12-18T13:45:52.433Z,22.9
2022-12-18T13:51:37.575Z,24.1
2022-12-18T13:57:32.628Z,22.4
2022-12-18T14:03:25.851Z,25
2022-12-18T14:09:14.752Z,24.3
2022-12-18T14:15:02.080Z,24.9
2022-12-18T14:20:56.245Z,22.7
2022-12-18T14:26:39.267Z,21.4
2022-12-18T14:32:22.861Z,24.2
2022-12-18T14:38:21.457Z,22.6
2022-12-18T14:44:09.019Z,23.5
2022-12-18T14:49:52.330Z,22
2022-12-18T14:55:35.465Z,23.3
2022-12-18T15:01:25.989Z,23.4
2022-12-18T15:07:12.066Z,22.9
2022-12-18T15:13:00.359Z,22.2
2022-12-18T15:18:45.589Z,21.4
2022-12-18T15:24:30.844Z,23.6
2022-12-18T15:30:28.829Z,21.8
2022-12-18T15:36:14.448Z,22
2022-12-18T15:41:59.057Z,23.9
2022-12-18T15:47:42.425Z,21.8
2022-12-18T15:53:26.519Z,21.9
2022-12-18T15:59:12.494Z,25.4
2022-12-18T16:04:56.710Z,20.9
2022-12-18T16:10:39.532Z,21.6
2022-12-18T16:16:24.703Z,21.7
2022-12-18T16:22:18.126Z,21.2
2022-12-18T16:28:01.428Z,20.6
2022-12-18T16:33:46.552Z,22
2022-12-18T16:39:29.894Z,20.3
2022-12-18T16:45:14.253Z,21.2
2022-12-18T16:51:02.356Z,22.5
2022-12-18T16:56:45.518Z,20.8
2022-12-18T17:02:31.358Z,19.9
2022-12-18T17:08:14.157Z,19.9
2022-12-18T17:13:58.949Z,20.6
2022-12-18T17:19:42.962Z,20.5
2022-12-18T17:25:27.796Z,20.7
2022-12-18T17:31:19.538Z,21.2
2022-12-18T17:37:03.201Z,20.3
2022-12-18T17:42:46.056Z,20.6
2022-12-18T17:48:29.412Z,19
2022-12-18T17:54:12.663Z,20.8
2022-12-18T17:59:57.357Z,18.3
2022-12-18T18:05:40.437Z,19.2
2022-12-18T18:11:25.293Z,19.9
2022-12-18T18:17:08.383Z,20.1
2022-12-18T18:22:51.179Z,18.7
2022-12-18T18:28:34.388Z,21.6
2022-12-18T18:34:19.569Z,22.6
2022-12-18T18:40:04.973Z,18.5
2022-12-18T18:45:50.822Z,19.5
2022-12-18T18:51:37.723Z,18.4
2022-12-18T18:57:31.481Z,20.5
2022-12-18T19:03:14.847Z,21.3
2022-12-18T19:08:58.535Z,19.7
2022-12-18T19:14:41.575Z,21.3
2022-12-18T19:20:24.554Z,20.2
2022-12-18T19:26:27.795Z,17.4
2022-12-18T19:32:13.230Z,18
2022-12-18T19:37:56.096Z,20.3
2022-12-18T19:43:39.962Z,18
2022-12-18T19:49:23.972Z,18.8
2022-12-18T19:55:09.317Z,17.4
2022-12-18T20:00:52.692Z,18.4
2022-12-18T20:06:36.580Z,16.7
2022-12-18T20:12:19.722Z,19.1
2022-12-18T20:18:03.785Z,18.3
2022-12-18T20:23:47.425Z,19.4
2022-12-18T20:29:30.331Z,15.8
2022-12-18T20:35:14.032Z,15.4
2022-12-18T20:40:57.111Z,16.4
2022-12-18T20:46:40.312Z,17.6
2022-12-18T20:52:25.697Z,15.9
2022-12-18T20:58:08.643Z,18.6
2022-12-18T21:03:53.171Z,16.3
2022-12-18T21:09:40.536Z,18.6
2022-12-18T21:15:30.857Z,16.7
2022-12-18T21:21:14.722Z,15.2
2022-12-18T21:26:57.810Z,17.8
2022-12-18T21:32:43.521Z,18.4
2022-12-18T21:38:26.466Z,17.3
2022-12-18T21:44:09.526Z,17.1
2022-12-18T21:49:52.846Z,15.9
2022-12-18T21:55:35.791Z,17
2022-12-18T22:01:19.455Z,16
2022-12-18T22:07:02.423Z,15.5
2022-12-18T22:12:53.460Z,16.3
2022-12-18T22:18:37.680Z,18.1
2022-12-18T22:24:22.460Z,16.3
2022-12-18T22:30:06.658Z,17.1
2022-12-18T22:35:50.701Z,15.1
2022-12-18T22:41:35.396Z,15.8
2022-12-18T22:47:18.491Z,15.2
2022-12-18T22:53:01.433Z,14.3
2022-12-18T22:58:44.642Z,16
2022-12-18T23:04:35.999Z,14.5
2022-12-18T23:10:19.184Z,15.7
2022-12-18T23:16:02.133Z,15.4
2022-12-18T23:21:44.848Z,14.7
2022-12-18T23:27:27.657Z,15.9
2022-12-18T23:33:10.617Z,15.2
2022-12-18T23:38:54.982Z,15.1
2022-12-18T23:44:37.641Z,15.1
2022-12-18T23:50:30.302Z,12.8
2022-12-18T23:56:14.139Z,13.3
